createdAt,value
2023-05-26T00:02:31.125Z,21.50
2023-05-26T00:05:36.683Z,21.40
2023-05-26T00:08:40.088Z,21.54
2023-05-26T00:11:42.506Z,21.37
2023-05-26T00:14:44.964Z,21.43
2023-05-26T00:17:48.500Z,21.45
2023-05-26T00:20:50.985Z,21.36
2023-05-26T00:23:53.393Z,21.48
2023-05-26T00:26:55.857Z,21.32
2023-05-26T00:29:59.407Z,21.52
2023-05-26T00:33:02.100Z,21.31
2023-05-26T00:36:04.705Z,21.40
2023-05-26T00:39:07.279Z,21.36
2023-05-26T00:42:12.647Z,21.29
2023-05-26T00:45:15.283Z,21.39
2023-05-26T00:48:19.017Z,21.31
2023-05-26T00:51:22.081Z,21.21
2023-05-26T00:54:24.790Z,21.39
2023-05-26T00:57:29.116Z,21.29
2023-05-26T01:00:32.106Z,21.26
2023-05-26T01:03:35.380Z,21.34
2023-05-26T01:06:43.126Z,21.28
2023-05-26T01:09:45.693Z,21.29
2023-05-26T01:12:58.359Z,21.30
2023-05-26T01:16:08.090Z,21.40
2023-05-26T01:19:35.997Z,21.36
2023-05-26T01:22:49.306Z,21.36
2023-05-26T01:26:13.692Z,21.37
2023-05-26T01:29:17.586Z,21.28
2023-05-26T01:32:21.398Z,21.25
2023-05-26T01:35:24.924Z,21.24
2023-05-26T01:38:27.461Z,21.21
2023-05-26T01:41:44.219Z,21.33
2023-05-26T01:44:52.220Z,21.33
2023-05-26T01:47:57.131Z,21.24
2023-05-26T01:51:02.406Z,21.33
2023-05-26T01:54:09.925Z,21.16
2023-05-26T01:57:14.111Z,21.30
2023-05-26T02:00:25.147Z,21.16
2023-05-26T02:03:27.806Z,21.24
2023-05-26T02:06:30.566Z,21.10
2023-05-26T02:09:33.437Z,21.14
2023-05-26T02:12:37.613Z,21.13
2023-05-26T02:15:40.450Z,21.26
2023-05-26T02:18:47.034Z,21.28
2023-05-26T02:21:49.977Z,21.25
2023-05-26T02:24:55.847Z,21.23
2023-05-26T02:27:58.236Z,21.08
2023-05-26T02:31:00.779Z,21.05
2023-05-26T02:34:05.880Z,21.23
2023-05-26T02:37:08.382Z,21.12
2023-05-26T02:40:11.264Z,20.99
2023-05-26T02:43:13.760Z,21.09
2023-05-26T02:46:16.414Z,21.13
2023-05-26T02:49:22.252Z,21.00
2023-05-26T02:52:24.870Z,21.07
2023-05-26T02:58:29.697Z,21.03
2023-05-26T03:01:33.337Z,21.06
2023-05-26T03:04:36.004Z,21.21
2023-05-26T03:07:38.380Z,21.01
2023-05-26T03:10:41.223Z,21.13
2023-05-26T03:13:44.532Z,21.07
2023-05-26T03:16:47.364Z,21.11
2023-05-26T03:19:49.831Z,21.12
2023-05-26T03:22:53.087Z,20.97
2023-05-26T03:25:57.259Z,21.20
2023-05-26T03:29:01.056Z,20.98
2023-05-26T03:32:03.607Z,21.20
2023-05-26T03:35:07.210Z,21.21
2023-05-26T03:38:09.615Z,21.08
2023-05-26T03:41:14.279Z,21.18
2023-05-26T03:44:27.728Z,21.11
2023-05-26T03:47:30.193Z,21.06
2023-05-26T03:50:32.672Z,21.03
2023-05-26T03:53:35.360Z,21.06
2023-05-26T03:56:39.416Z,21.19
2023-05-26T03:59:42.240Z,21.15
2023-05-26T04:02:45.450Z,21.02
2023-05-26T04:05:48.843Z,21.22
2023-05-26T04:08:51.261Z,21.20
2023-05-26T04:11:53.766Z,21.28
2023-05-26T04:14:56.408Z,21.33
2023-05-26T04:17:58.913Z,21.30
2023-05-26T04:21:01.540Z,21.38
2023-05-26T04:24:04.490Z,21.32
2023-05-26T04:27:08.934Z,21.36
2023-05-26T04:30:40.330Z,21.33
2023-05-26T04:33:51.802Z,21.53
2023-05-26T04:37:27.683Z,21.51
2023-05-26T04:40:33.298Z,21.60
2023-05-26T04:43:36.244Z,21.54
2023-05-26T04:46:39.229Z,21.63
2023-05-26T04:49:43.650Z,21.61
2023-05-26T04:52:46.400Z,21.75
2023-05-26T04:55:49.008Z,21.64
2023-05-26T04:58:53.309Z,21.69
2023-05-26T05:01:55.973Z,21.67
2023-05-26T05:05:09.354Z,21.87
2023-05-26T05:08:11.865Z,21.85
2023-05-26T05:11:14.459Z,21.86
2023-05-26T05:14:18.952Z,21.86
2023-05-26T05:17:22.696Z,21.92
2023-05-26T05:20:28.277Z,22.01
2023-05-26T05:23:35.396Z,22.05
2023-05-26T05:26:40.421Z,22.11
2023-05-26T05:29:44.007Z,22.13
2023-05-26T05:32:46.820Z,22.10
2023-05-26T05:35:54.216Z,22.22
2023-05-26T05:38:56.902Z,22.09
2023-05-26T05:41:59.552Z,22.20
2023-05-26T05:45:03.448Z,22.25
2023-05-26T05:48:26.340Z,22.37
2023-05-26T05:51:35.276Z,22.43
2023-05-26T05:54:38.183Z,22.44
2023-05-26T05:57:44.287Z,22.42
2023-05-26T06:00:47.964Z,22.50
2023-05-26T06:03:54.799Z,22.66
2023-05-26T06:06:58.629Z,22.56
2023-05-26T06:10:02.150Z,22.67
2023-05-26T06:13:05.090Z,22.93
2023-05-26T06:16:08.346Z,22.83
2023-05-26T06:19:11.195Z,22.89
2023-05-26T06:22:14.906Z,23.23
2023-05-26T06:25:17.664Z,23.30
2023-05-26T06:28:20.514Z,23.39
2023-05-26T06:31:23.930Z,23.62
2023-05-26T06:34:33.762Z,23.98
2023-05-26T06:37:36.275Z,23.92
2023-05-26T06:40:38.796Z,24.19
2023-05-26T06:43:42.131Z,24.37
2023-05-26T06:46:45.562Z,24.65
2023-05-26T06:50:02.705Z,24.77
2023-05-26T06:53:06.579Z,25.01
2023-05-26T06:56:09.152Z,25.23
2023-05-26T06:59:13.598Z,25.60
2023-05-26T07:02:16.249Z,25.65
2023-05-26T07:05:19.466Z,25.77
2023-05-26T07:08:25.224Z,25.96
2023-05-26T07:11:30.152Z,26.14
2023-05-26T07:14:37.899Z,26.33
2023-05-26T07:17:41.150Z,26.40
2023-05-26T07:20:43.968Z,26.57
2023-05-26T07:23:49.787Z,26.63
2023-05-26T07:26:54.255Z,26.84
2023-05-26T07:29:56.708Z,26.88
2023-05-26T07:32:59.270Z,26.83
2023-05-26T07:36:02.110Z,26.97
2023-05-26T07:39:04.980Z,26.87
2023-05-26T07:42:07.829Z,26.88
2023-05-26T07:45:11.114Z,26.78
2023-05-26T07:48:16.316Z,26.72
2023-05-26T07:51:18.908Z,26.49
2023-05-26T07:54:21.359Z,26.56
2023-05-26T07:57:30.145Z,26.59
2023-05-26T08:00:33.167Z,26.45
2023-05-26T08:03:35.956Z,26.48
2023-05-26T08:06:39.779Z,26.35
2023-05-26T08:09:42.474Z,26.24
2023-05-26T08:12:45.341Z,26.18
2023-05-26T08:15:48.237Z,26.13
2023-05-26T08:18:50.977Z,25.92
2023-05-26T08:21:53.889Z,25.53
2023-05-26T08:24:56.595Z,25.65
2023-05-26T08:27:59.015Z,25.50
2023-05-26T08:31:01.709Z,25.34
2023-05-26T08:34:04.178Z,25.36
2023-05-26T08:37:06.599Z,25.23
2023-05-26T08:40:11.013Z,25.26
2023-05-26T08:43:15.479Z,25.10
2023-05-26T08:46:18.219Z,25.12
2023-05-26T08:49:22.013Z,24.95
2023-05-26T08:52:24.718Z,24.78
2023-05-26T08:55:28.440Z,24.93
2023-05-26T08:58:34.929Z,24.91
2023-05-26T09:01:38.062Z,24.86
2023-05-26T09:04:40.724Z,24.74
2023-05-26T09:07:43.122Z,24.82
2023-05-26T09:10:45.895Z,24.90
2023-05-26T09:13:58.556Z,24.88
2023-05-26T09:17:01.202Z,24.86
2023-05-26T09:20:07.200Z,24.72
2023-05-26T09:23:10.313Z,24.74
2023-05-26T09:26:12.779Z,24.73
2023-05-26T09:29:16.187Z,24.69
2023-05-26T09:32:18.776Z,24.65
2023-05-26T09:35:23.047Z,24.60
2023-05-26T09:38:25.607Z,24.49
2023-05-26T09:41:41.108Z,24.55
2023-05-26T09:44:51.744Z,24.52
2023-05-26T09:47:57.650Z,24.28
2023-05-26T09:51:00.219Z,24.29
2023-05-26T09:54:03.475Z,24.28
2023-05-26T09:57:12.874Z,24.47
2023-05-26T10:00:19.238Z,24.35
2023-05-26T10:03:22.697Z,24.09
2023-05-26T10:06:25.651Z,24.13
2023-05-26T10:09:33.337Z,24.22
2023-05-26T10:12:36.648Z,24.16
2023-05-26T10:15:39.337Z,24.35
2023-05-26T10:18:41.786Z,24.32
2023-05-26T10:21:49.438Z,24.12
2023-05-26T10:25:03.252Z,24.28
2023-05-26T10:28:28.868Z,24.03
2023-05-26T10:31:33.077Z,24.23
2023-05-26T10:34:40.503Z,24.03
2023-05-26T10:37:49.407Z,24.23
2023-05-26T10:40:52.453Z,24.12
2023-05-26T10:43:55.462Z,24.22
2023-05-26T10:47:05.849Z,24.21
2023-05-26T10:50:11.131Z,24.19
2023-05-26T10:53:22.160Z,24.18
2023-05-26T10:56:42.008Z,24.20
2023-05-26T10:59:44.454Z,24.21
2023-05-26T11:02:47.153Z,24.25
2023-05-26T11:05:58.224Z,24.26
2023-05-26T11:09:03.888Z,24.26
2023-05-26T11:12:07.689Z,24.27
2023-05-26T11:15:27.340Z,24.22
2023-05-26T11:18:31.154Z,24.20
2023-05-26T11:21:35.904Z,24.23
2023-05-26T11:24:38.421Z,24.15
2023-05-26T11:27:46.763Z,24.22
2023-05-26T11:30:49.288Z,24.20
2023-05-26T11:33:51.690Z,24.02
2023-05-26T11:36:55.246Z,24.23
2023-05-26T11:39:59.011Z,24.23
2023-05-26T11:43:01.485Z,24.22
2023-05-26T11:46:07.326Z,24.20
2023-05-26T11:49:17.046Z,24.15
2023-05-26T11:52:24.289Z,24.18
2023-05-26T11:55:26.795Z,24.13
2023-05-26T11:58:29.301Z,24.11
2023-05-26T12:01:32.784Z,24.11
2023-05-26T12:04:35.426Z,24.13
2023-05-26T12:07:37.957Z,24.13
2023-05-26T12:10:43.524Z,24.11
2023-05-26T12:13:46.533Z,24.06
2023-05-26T12:16:54.948Z,24.03
2023-05-26T12:19:57.524Z,24.02
2023-05-26T12:23:03.677Z,24.05
2023-05-26T12:26:21.398Z,24.08
2023-05-26T12:29:23.805Z,23.99
2023-05-26T12:32:26.250Z,24.06
2023-05-26T12:35:28.689Z,24.06
2023-05-26T12:38:43.469Z,24.03
2023-05-26T12:41:46.898Z,24.03
2023-05-26T12:44:49.348Z,24.02
2023-05-26T12:47:51.888Z,24.02
2023-05-26T12:50:54.345Z,24.00
2023-05-26T12:53:56.807Z,23.97
2023-05-26T12:56:59.270Z,23.93
2023-05-26T13:00:01.715Z,23.81
2023-05-26T13:03:05.063Z,23.92
2023-05-26T13:06:10.226Z,23.91
2023-05-26T13:09:13.721Z,23.91
2023-05-26T13:12:16.176Z,23.87
2023-05-26T13:15:19.569Z,23.85
2023-05-26T13:18:26.073Z,23.80
2023-05-26T13:21:29.228Z,23.85
2023-05-26T13:24:31.655Z,23.84
2023-05-26T13:27:34.095Z,23.83
2023-05-26T13:30:36.501Z,23.82
2023-05-26T13:33:38.881Z,23.82
2023-05-26T13:36:41.612Z,23.81
2023-05-26T13:39:44.103Z,23.71
2023-05-26T13:42:47.838Z,23.75
2023-05-26T13:45:54.494Z,23.74
2023-05-26T13:48:57.424Z,23.79
2023-05-26T13:52:05.253Z,23.79
2023-05-26T13:55:08.457Z,23.73
2023-05-26T13:58:19.979Z,23.61
2023-05-26T14:01:36.118Z,23.77
2023-05-26T14:04:43.711Z,23.72
2023-05-26T14:07:47.115Z,23.77
2023-05-26T14:10:52.083Z,23.76
2023-05-26T14:13:55.390Z,23.69
2023-05-26T14:16:58.077Z,23.75
2023-05-26T14:20:07.252Z,23.75
2023-05-26T14:23:10.906Z,23.75
2023-05-26T14:26:13.868Z,23.71
2023-05-26T14:29:16.407Z,23.72
2023-05-26T14:32:18.871Z,23.72
2023-05-26T14:35:21.270Z,23.63
2023-05-26T14:38:23.772Z,23.67
2023-05-26T14:41:27.163Z,23.72
2023-05-26T14:44:29.626Z,23.71
2023-05-26T14:47:32.103Z,23.66
2023-05-26T14:50:34.626Z,23.66
2023-05-26T14:53:37.252Z,23.63
2023-05-26T14:56:39.902Z,23.66
2023-05-26T14:59:42.472Z,23.64
2023-05-26T15:02:45.974Z,23.64
2023-05-26T15:05:48.712Z,23.63
2023-05-26T15:08:51.272Z,23.62
2023-05-26T15:11:53.653Z,23.58
2023-05-26T15:14:57.450Z,23.60
2023-05-26T15:17:59.859Z,23.55
2023-05-26T15:21:03.887Z,23.53
2023-05-26T15:24:07.947Z,23.56
2023-05-26T15:27:11.365Z,23.55
2023-05-26T15:33:22.532Z,23.56
2023-05-26T15:36:26.213Z,23.55
2023-05-26T15:39:28.936Z,23.55
2023-05-26T15:42:31.392Z,23.50
2023-05-26T15:45:33.887Z,23.53
2023-05-26T15:48:36.695Z,23.51
2023-05-26T15:51:39.204Z,23.47
2023-05-26T15:54:41.771Z,23.49
2023-05-26T15:57:44.203Z,23.41
2023-05-26T16:00:46.704Z,23.41
2023-05-26T16:03:49.328Z,23.35
2023-05-26T16:06:51.866Z,23.46
2023-05-26T16:09:54.343Z,23.46
2023-05-26T16:12:56.801Z,23.39
2023-05-26T16:16:00.630Z,23.41
2023-05-26T16:19:03.134Z,23.38
2023-05-26T16:22:05.576Z,23.45
2023-05-26T16:25:08.560Z,23.40
2023-05-26T16:28:10.988Z,23.33
2023-05-26T16:31:13.662Z,23.37
2023-05-26T16:34:16.281Z,23.35
2023-05-26T16:37:19.124Z,23.42
2023-05-26T16:40:21.539Z,23.41
2023-05-26T16:46:34.308Z,23.35
2023-05-26T16:49:36.715Z,23.37
2023-05-26T16:52:39.097Z,23.29
2023-05-26T16:55:41.515Z,23.25
2023-05-26T16:58:43.964Z,23.37
2023-05-26T17:01:46.464Z,23.34
2023-05-26T17:04:48.864Z,23.30
2023-05-26T17:07:51.522Z,23.35
2023-05-26T17:10:56.165Z,23.29
2023-05-26T17:13:58.842Z,23.33
2023-05-26T17:17:04.608Z,23.33
2023-05-26T17:20:08.510Z,23.28
2023-05-26T17:23:12.623Z,23.26
2023-05-26T17:26:15.100Z,23.25
2023-05-26T17:29:17.673Z,23.30
2023-05-26T17:32:20.108Z,23.24
2023-05-26T17:35:23.047Z,23.28
2023-05-26T17:38:25.572Z,23.19
2023-05-26T17:41:27.933Z,23.15
2023-05-26T17:44:30.457Z,23.24
2023-05-26T17:47:32.893Z,23.21
2023-05-26T17:50:36.018Z,23.23
2023-05-26T17:53:38.617Z,23.17
2023-05-26T17:56:41.706Z,23.18
2023-05-26T17:59:44.172Z,23.21
2023-05-26T18:02:46.654Z,23.19
2023-05-26T18:05:49.171Z,23.16
2023-05-26T18:08:53.685Z,23.19
2023-05-26T18:11:56.047Z,23.12
2023-05-26T18:14:58.427Z,23.16
2023-05-26T18:18:01.348Z,23.09
2023-05-26T18:21:04.157Z,23.11
2023-05-26T18:24:07.259Z,23.12
2023-05-26T18:27:09.817Z,23.11
2023-05-26T18:30:15.846Z,23.05
2023-05-26T18:33:18.317Z,23.08
2023-05-26T18:36:20.870Z,23.00
2023-05-26T18:39:23.328Z,23.03
2023-05-26T18:42:25.720Z,22.93
2023-05-26T18:45:28.099Z,22.96
2023-05-26T18:48:30.479Z,22.96
2023-05-26T18:51:33.852Z,22.88
2023-05-26T18:54:36.397Z,22.92
2023-05-26T18:57:38.831Z,22.90
2023-05-26T19:00:42.772Z,22.86
2023-05-26T19:03:45.276Z,22.79
2023-05-26T19:06:47.800Z,22.85
2023-05-26T19:09:50.258Z,22.82
2023-05-26T19:12:52.678Z,22.80
2023-05-26T19:15:55.126Z,22.70
2023-05-26T19:18:58.098Z,22.70
2023-05-26T19:22:00.490Z,22.74
2023-05-26T19:25:04.469Z,22.73
2023-05-26T19:28:06.893Z,22.70
2023-05-26T19:31:09.473Z,22.66
2023-05-26T19:34:12.972Z,22.63
2023-05-26T19:37:15.508Z,22.57
2023-05-26T19:40:17.896Z,22.57
2023-05-26T19:43:21.335Z,22.52
2023-05-26T19:46:24.011Z,22.59
2023-05-26T19:49:29.210Z,22.55
2023-05-26T19:52:31.692Z,22.52
2023-05-26T19:55:34.105Z,22.54
2023-05-26T19:58:36.517Z,22.51
2023-05-26T20:01:39.801Z,22.44
2023-05-26T20:04:42.641Z,22.43
2023-05-26T20:07:45.079Z,22.47
2023-05-26T20:10:47.724Z,22.43
2023-05-26T20:13:50.105Z,22.41
2023-05-26T20:16:52.882Z,22.37
2023-05-26T20:20:11.964Z,22.40
2023-05-26T20:23:16.292Z,22.34
2023-05-26T20:26:18.732Z,22.40
2023-05-26T20:29:22.176Z,22.40
2023-05-26T20:32:25.400Z,22.38
2023-05-26T20:35:27.842Z,22.38
2023-05-26T20:38:30.876Z,22.28
2023-05-26T20:41:33.258Z,22.30
2023-05-26T20:44:36.108Z,22.27
2023-05-26T20:47:38.584Z,22.30
2023-05-26T20:50:41.317Z,22.33
2023-05-26T20:53:47.031Z,22.33
2023-05-26T20:56:49.458Z,22.30
2023-05-26T20:59:51.890Z,22.29
2023-05-26T21:02:54.389Z,22.29
2023-05-26T21:05:56.980Z,22.26
2023-05-26T21:08:59.432Z,22.26
2023-05-26T21:12:03.018Z,22.27
2023-05-26T21:15:05.958Z,22.26
2023-05-26T21:18:08.468Z,22.19
2023-05-26T21:21:11.174Z,22.24
2023-05-26T21:24:13.606Z,22.23
2023-05-26T21:27:16.337Z,22.18
2023-05-26T21:30:20.679Z,22.23
2023-05-26T21:33:23.428Z,22.22
2023-05-26T21:36:26.002Z,22.20
2023-05-26T21:39:28.483Z,22.16
2023-05-26T21:42:30.892Z,22.20
2023-05-26T21:45:33.755Z,22.11
2023-05-26T21:48:36.174Z,22.13
2023-05-26T21:51:38.670Z,22.17
2023-05-26T21:54:42.894Z,22.15
2023-05-26T21:57:45.794Z,22.12
2023-05-26T22:00:48.317Z,22.18
2023-05-26T22:03:51.156Z,22.16
2023-05-26T22:06:53.649Z,22.08
2023-05-26T22:09:56.089Z,22.13
2023-05-26T22:12:58.664Z,22.13
2023-05-26T22:16:01.569Z,22.08
2023-05-26T22:19:04.236Z,22.11
2023-05-26T22:22:06.705Z,22.10
2023-05-26T22:25:09.655Z,22.13
2023-05-26T22:28:12.311Z,22.10
2023-05-26T22:31:14.866Z,22.11
2023-05-26T22:34:17.312Z,22.12
2023-05-26T22:37:19.801Z,22.13
2023-05-26T22:40:22.312Z,22.12
2023-05-26T22:43:24.743Z,22.04
2023-05-26T22:46:27.289Z,22.01
2023-05-26T22:49:29.700Z,22.09
2023-05-26T22:52:33.092Z,22.05
2023-05-26T22:55:47.015Z,22.08
2023-05-26T22:58:53.801Z,22.02
2023-05-26T23:01:56.193Z,22.08
2023-05-26T23:04:58.667Z,22.01
2023-05-26T23:08:01.241Z,22.08
2023-05-26T23:11:04.000Z,22.09
2023-05-26T23:14:06.406Z,21.99
2023-05-26T23:17:08.913Z,22.07
2023-05-26T23:20:11.765Z,21.98
2023-05-26T23:23:14.400Z,22.05
2023-05-26T23:26:16.855Z,22.04
2023-05-26T23:29:26.945Z,21.97
2023-05-26T23:32:29.412Z,22.03
2023-05-26T23:35:31.849Z,22.02
2023-05-26T23:38:34.297Z,21.96
2023-05-26T23:41:36.792Z,21.96
2023-05-26T23:44:39.422Z,22.01
2023-05-26T23:47:41.979Z,21.96
2023-05-26T23:50:44.465Z,21.94
2023-05-26T23:53:47.014Z,21.95
2023-05-26T23:56:49.423Z,21.98
2023-05-26T23:59:51.923Z,21.93
